createdAt,value
2022-08-26T00:00:27.745Z,17.63
2022-08-26T00:01:29.672Z,17.63
2022-08-26T00:02:27.732Z,17.62
2022-08-26T00:03:27.736Z,17.62
2022-08-26T00:04:27.734Z,17.58
2022-08-26T00:05:27.678Z,17.56
2022-08-26T00:06:28.205Z,17.55
2022-08-26T00:07:27.626Z,17.52
2022-08-26T00:08:27.658Z,17.51
2022-08-26T00:09:27.616Z,17.51
2022-08-26T00:10:27.618Z,17.52
2022-08-26T00:11:27.678Z,17.54
2022-08-26T00:12:31.490Z,17.55
2022-08-26T00:13:28.555Z,17.55
2022-08-26T00:14:31.001Z,17.56
2022-08-26T00:15:27.567Z,17.55
2022-08-26T00:16:27.591Z,17.55
2022-08-26T00:17:27.596Z,17.55
2022-08-26T00:18:27.526Z,17.52
2022-08-26T00:19:27.512Z,17.51
2022-08-26T00:20:27.510Z,17.48
2022-08-26T00:21:27.477Z,17.48
2022-08-26T00:22:27.487Z,17.48
2022-08-26T00:23:28.849Z,17.48
2022-08-26T00:24:27.459Z,17.48
2022-08-26T00:25:27.430Z,17.44
2022-08-26T00:26:28.444Z,17.44
2022-08-26T00:27:27.416Z,17.44
2022-08-26T00:28:28.268Z,17.43
2022-08-26T00:29:27.426Z,17.40
2022-08-26T00:30:28.268Z,17.40
2022-08-26T00:31:27.421Z,17.38
2022-08-26T00:32:27.375Z,17.37
2022-08-26T00:33:27.369Z,17.37
2022-08-26T00:34:27.374Z,17.36
2022-08-26T00:35:27.956Z,17.34
2022-08-26T00:36:29.649Z,17.34
2022-08-26T00:37:27.308Z,17.33
2022-08-26T00:38:27.304Z,17.31
2022-08-26T00:39:27.289Z,17.28
2022-08-26T00:40:27.390Z,17.23
2022-08-26T00:41:27.261Z,17.21
2022-08-26T00:42:27.307Z,17.21
2022-08-26T00:43:27.280Z,17.21
2022-08-26T00:44:27.339Z,17.18
2022-08-26T00:45:27.255Z,17.18
2022-08-26T00:46:27.219Z,17.15
2022-08-26T00:47:27.223Z,17.14
2022-08-26T00:48:27.227Z,17.12
2022-08-26T00:49:27.167Z,17.07
2022-08-26T00:50:27.178Z,17.06
2022-08-26T00:51:29.528Z,17.03
2022-08-26T00:52:27.157Z,17.00
2022-08-26T00:53:27.934Z,17.00
2022-08-26T00:54:27.309Z,17.01
2022-08-26T00:55:27.338Z,17.01
2022-08-26T00:56:28.102Z,17.04
2022-08-26T00:57:27.079Z,17.06
2022-08-26T00:58:27.070Z,17.07
2022-08-26T00:59:27.074Z,17.06
2022-08-26T01:00:27.062Z,17.07
2022-08-26T01:01:27.072Z,17.07
2022-08-26T01:02:27.048Z,17.06
2022-08-26T01:03:27.018Z,17.07
2022-08-26T01:04:27.011Z,17.06
2022-08-26T01:05:26.999Z,17.06
2022-08-26T01:06:27.010Z,17.03
2022-08-26T01:07:27.581Z,17.03
2022-08-26T01:08:26.973Z,17.01
2022-08-26T01:09:26.960Z,17.00
2022-08-26T01:10:26.939Z,16.97
2022-08-26T01:11:27.030Z,16.96
2022-08-26T01:12:27.036Z,16.96
2022-08-26T01:13:26.899Z,16.94
2022-08-26T01:14:26.906Z,16.94
2022-08-26T01:15:26.873Z,16.94
2022-08-26T01:16:26.897Z,16.91
2022-08-26T01:17:27.373Z,16.89
2022-08-26T01:18:26.861Z,16.91
2022-08-26T01:19:26.822Z,16.89
2022-08-26T01:20:26.830Z,16.89
2022-08-26T01:21:26.800Z,16.89
2022-08-26T01:22:28.165Z,16.85
2022-08-26T01:23:27.305Z,16.83
2022-08-26T01:24:26.799Z,16.83
2022-08-26T01:25:26.801Z,16.85
2022-08-26T01:26:26.846Z,16.83
2022-08-26T01:27:26.731Z,16.82
2022-08-26T01:28:27.950Z,16.82
2022-08-26T01:29:26.741Z,16.79
2022-08-26T01:30:26.716Z,16.81
2022-08-26T01:31:26.917Z,16.79
2022-08-26T01:32:26.858Z,16.76
2022-08-26T01:33:26.961Z,16.75
2022-08-26T01:34:26.930Z,16.73
2022-08-26T01:35:26.660Z,16.70
2022-08-26T01:36:26.650Z,16.68
2022-08-26T01:37:26.650Z,16.68
2022-08-26T01:38:26.635Z,16.68
2022-08-26T01:39:27.614Z,16.67
2022-08-26T01:40:26.725Z,16.67
2022-08-26T01:41:27.261Z,16.67
2022-08-26T01:42:26.595Z,16.64
2022-08-26T01:43:26.566Z,16.64
2022-08-26T01:44:26.636Z,16.63
2022-08-26T01:45:26.698Z,16.61
2022-08-26T01:46:26.547Z,16.60
2022-08-26T01:47:26.522Z,16.57
2022-08-26T01:48:26.545Z,16.60
2022-08-26T01:49:26.543Z,16.58
2022-08-26T01:50:28.175Z,16.58
2022-08-26T01:51:26.496Z,16.58
2022-08-26T01:52:28.069Z,16.57
2022-08-26T01:53:26.475Z,16.56
2022-08-26T01:54:26.457Z,16.57
2022-08-26T01:55:33.090Z,16.56
2022-08-26T01:56:33.266Z,16.52
2022-08-26T01:57:27.402Z,16.49
2022-08-26T01:58:26.419Z,16.49
2022-08-26T01:59:26.602Z,16.49
2022-08-26T02:00:26.665Z,16.48
2022-08-26T02:01:29.204Z,16.45
2022-08-26T02:02:26.378Z,16.43
2022-08-26T02:03:26.399Z,16.45
2022-08-26T02:04:26.459Z,16.46
2022-08-26T02:05:26.402Z,16.43
2022-08-26T02:06:26.384Z,16.45
2022-08-26T02:07:26.764Z,16.46
2022-08-26T02:08:26.287Z,16.46
2022-08-26T02:09:26.304Z,16.45
2022-08-26T02:10:26.352Z,16.46
2022-08-26T02:11:26.402Z,16.45
2022-08-26T02:12:26.440Z,16.45
2022-08-26T02:13:26.253Z,16.45
2022-08-26T02:14:26.781Z,16.43
2022-08-26T02:15:26.238Z,16.42
2022-08-26T02:16:26.591Z,16.41
2022-08-26T02:17:26.579Z,16.39
2022-08-26T02:18:26.166Z,16.41
2022-08-26T02:19:26.191Z,16.39
2022-08-26T02:20:26.566Z,16.38
2022-08-26T02:21:26.186Z,16.35
2022-08-26T02:22:26.145Z,16.34
2022-08-26T02:23:26.147Z,16.33
2022-08-26T02:24:27.488Z,16.31
2022-08-26T02:25:26.114Z,16.31
2022-08-26T02:26:27.110Z,16.30
2022-08-26T02:27:26.121Z,16.28
2022-08-26T02:28:26.641Z,16.27
2022-08-26T02:29:26.635Z,16.25
2022-08-26T02:30:26.145Z,16.24
2022-08-26T02:31:26.295Z,16.25
2022-08-26T02:32:27.127Z,16.28
2022-08-26T02:33:26.113Z,16.30
2022-08-26T02:34:25.981Z,16.31
2022-08-26T02:35:26.044Z,16.31
2022-08-26T02:36:28.733Z,16.31
2022-08-26T02:37:25.981Z,16.33
2022-08-26T02:38:25.956Z,16.33
2022-08-26T02:39:25.941Z,16.33
2022-08-26T02:40:26.308Z,16.31
2022-08-26T02:41:25.925Z,16.34
2022-08-26T02:42:26.303Z,16.34
2022-08-26T02:43:31.811Z,16.34
2022-08-26T02:44:27.411Z,16.34
2022-08-26T02:45:26.447Z,16.35
2022-08-26T02:46:29.852Z,16.35
2022-08-26T02:47:25.853Z,16.38
2022-08-26T02:48:25.823Z,16.38
2022-08-26T02:49:25.837Z,16.35
2022-08-26T02:50:25.833Z,16.35
2022-08-26T02:51:25.869Z,16.34
2022-08-26T02:52:25.861Z,16.33
2022-08-26T02:53:25.837Z,16.33
2022-08-26T02:54:25.833Z,16.34
2022-08-26T02:55:25.911Z,16.33
2022-08-26T02:56:25.801Z,16.33
2022-08-26T02:57:26.006Z,16.31
2022-08-26T02:58:25.736Z,16.31
2022-08-26T02:59:25.784Z,16.31
2022-08-26T03:00:25.765Z,16.25
2022-08-26T03:01:25.795Z,16.25
2022-08-26T03:02:26.077Z,16.23
2022-08-26T03:03:25.679Z,16.21
2022-08-26T03:04:26.036Z,16.17
2022-08-26T03:05:25.742Z,16.17
2022-08-26T03:06:25.634Z,16.15
2022-08-26T03:07:26.095Z,16.15
2022-08-26T03:08:25.652Z,16.14
2022-08-26T03:09:26.083Z,16.14
2022-08-26T03:10:26.018Z,16.11
2022-08-26T03:11:27.635Z,16.08
2022-08-26T03:12:26.548Z,16.05
2022-08-26T03:13:25.701Z,16.04
2022-08-26T03:14:25.816Z,16.04
2022-08-26T03:15:25.828Z,16.04
2022-08-26T03:16:25.569Z,16.02
2022-08-26T03:17:26.947Z,16.01
2022-08-26T03:18:25.508Z,16.01
2022-08-26T03:19:25.956Z,16.02
2022-08-26T03:20:25.974Z,16.01
2022-08-26T03:21:26.057Z,15.97
2022-08-26T03:22:26.097Z,15.93
2022-08-26T03:23:25.462Z,15.92
2022-08-26T03:24:26.182Z,15.89
2022-08-26T03:25:25.416Z,15.89
2022-08-26T03:26:25.433Z,15.89
2022-08-26T03:27:25.474Z,15.89
2022-08-26T03:28:27.138Z,15.84
2022-08-26T03:29:25.417Z,15.84
2022-08-26T03:30:25.376Z,15.82
2022-08-26T03:31:25.413Z,15.78
2022-08-26T03:32:27.208Z,15.78
2022-08-26T03:33:25.332Z,15.75
2022-08-26T03:34:25.445Z,15.75
2022-08-26T03:35:25.361Z,15.75
2022-08-26T03:36:25.266Z,15.76
2022-08-26T03:37:25.273Z,15.76
2022-08-26T03:38:28.468Z,15.74
2022-08-26T03:39:25.275Z,15.74
2022-08-26T03:40:25.383Z,15.72
2022-08-26T03:41:25.245Z,15.71
2022-08-26T03:42:25.205Z,15.71
2022-08-26T03:43:25.209Z,15.71
2022-08-26T03:44:25.205Z,15.69
2022-08-26T03:45:25.486Z,15.68
2022-08-26T03:46:25.252Z,15.67
2022-08-26T03:47:25.175Z,15.65
2022-08-26T03:48:25.145Z,15.64
2022-08-26T03:49:25.160Z,15.62
2022-08-26T03:50:25.146Z,15.60
2022-08-26T03:51:25.480Z,15.60
2022-08-26T03:52:25.255Z,15.57
2022-08-26T03:53:25.109Z,15.56
2022-08-26T03:54:25.586Z,15.51
2022-08-26T03:55:27.279Z,15.51
2022-08-26T03:56:25.195Z,15.50
2022-08-26T03:57:25.615Z,15.51
2022-08-26T03:58:25.025Z,15.50
2022-08-26T03:59:25.039Z,15.53
2022-08-26T04:00:25.737Z,15.49
2022-08-26T04:01:25.807Z,15.49
2022-08-26T04:02:25.030Z,15.46
2022-08-26T04:03:25.025Z,15.46
2022-08-26T04:04:24.978Z,15.46
2022-08-26T04:05:24.965Z,15.47
2022-08-26T04:06:25.058Z,15.46
2022-08-26T04:07:24.934Z,15.46
2022-08-26T04:08:24.928Z,15.44
2022-08-26T04:09:24.918Z,15.43
2022-08-26T04:10:29.229Z,15.41
2022-08-26T04:11:25.110Z,15.39
2022-08-26T04:12:24.868Z,15.38
2022-08-26T04:13:24.879Z,15.36
2022-08-26T04:14:25.316Z,15.35
2022-08-26T04:15:24.863Z,15.34
2022-08-26T04:16:24.987Z,15.32
2022-08-26T04:17:25.052Z,15.34
2022-08-26T04:18:24.836Z,15.32
2022-08-26T04:19:24.796Z,15.32
2022-08-26T04:20:24.786Z,15.29
2022-08-26T04:21:24.846Z,15.27
2022-08-26T04:22:25.072Z,15.27
2022-08-26T04:23:24.781Z,15.25
2022-08-26T04:24:24.720Z,15.23
2022-08-26T04:25:24.724Z,15.21
2022-08-26T04:26:24.706Z,15.20
2022-08-26T04:27:25.001Z,15.17
2022-08-26T04:28:24.680Z,15.16
2022-08-26T04:29:24.679Z,15.16
2022-08-26T04:30:24.676Z,15.14
2022-08-26T04:31:24.709Z,15.16
2022-08-26T04:32:24.657Z,15.14
2022-08-26T04:33:32.291Z,15.13
2022-08-26T04:34:27.250Z,15.11
2022-08-26T04:35:26.126Z,15.10
2022-08-26T04:36:25.057Z,15.11
2022-08-26T04:37:24.585Z,15.10
2022-08-26T04:38:24.578Z,15.13
2022-08-26T04:39:25.225Z,15.11
2022-08-26T04:40:24.676Z,15.13
2022-08-26T04:41:24.537Z,15.13
2022-08-26T04:42:26.229Z,15.13
2022-08-26T04:43:24.541Z,15.13
2022-08-26T04:44:24.518Z,15.13
2022-08-26T04:45:24.508Z,15.13
2022-08-26T04:46:24.592Z,15.11
2022-08-26T04:47:26.226Z,15.11
2022-08-26T04:48:24.476Z,15.11
2022-08-26T04:49:26.133Z,15.13
2022-08-26T04:50:24.437Z,15.14
2022-08-26T04:51:24.437Z,15.13
2022-08-26T04:52:24.412Z,15.13
2022-08-26T04:53:24.426Z,15.14
2022-08-26T04:54:25.172Z,15.14
2022-08-26T04:55:37.323Z,15.17
2022-08-26T04:56:25.669Z,15.20
2022-08-26T04:57:24.357Z,15.23
2022-08-26T04:58:24.330Z,15.23
2022-08-26T04:59:24.598Z,15.23
2022-08-26T05:00:24.330Z,15.23
2022-08-26T05:01:24.343Z,15.23
2022-08-26T05:02:24.291Z,15.25
2022-08-26T05:03:24.288Z,15.27
2022-08-26T05:04:24.314Z,15.28
2022-08-26T05:05:24.279Z,15.29
2022-08-26T05:06:24.253Z,15.32
2022-08-26T05:07:24.237Z,15.32
2022-08-26T05:08:24.245Z,15.35
2022-08-26T05:09:24.225Z,15.36
2022-08-26T05:10:24.198Z,15.36
2022-08-26T05:11:24.188Z,15.38
2022-08-26T05:12:24.166Z,15.41
2022-08-26T05:13:24.166Z,15.44
2022-08-26T05:14:24.168Z,15.44
2022-08-26T05:15:24.146Z,15.47
2022-08-26T05:16:24.326Z,15.51
2022-08-26T05:17:24.125Z,15.53
2022-08-26T05:18:24.112Z,15.56
2022-08-26T05:19:24.102Z,15.56
2022-08-26T05:20:26.227Z,15.60
2022-08-26T05:21:24.079Z,15.62
2022-08-26T05:22:24.078Z,15.65
2022-08-26T05:23:24.138Z,15.69
2022-08-26T05:24:24.038Z,15.74
2022-08-26T05:25:24.169Z,15.80
2022-08-26T05:26:24.169Z,15.83
2022-08-26T05:27:24.346Z,15.89
2022-08-26T05:28:23.992Z,15.93
2022-08-26T05:29:24.015Z,16.00
2022-08-26T05:30:23.968Z,16.04
2022-08-26T05:31:24.061Z,16.08
2022-08-26T05:32:23.958Z,16.12
2022-08-26T05:33:23.964Z,16.17
2022-08-26T05:34:23.931Z,16.25
2022-08-26T05:35:24.918Z,16.30
2022-08-26T05:36:23.898Z,16.35
2022-08-26T05:37:23.909Z,16.42
2022-08-26T05:38:23.890Z,16.46
2022-08-26T05:39:23.891Z,16.52
2022-08-26T05:40:23.927Z,16.57
2022-08-26T05:41:23.872Z,16.64
2022-08-26T05:42:23.839Z,16.70
2022-08-26T05:43:23.988Z,16.75
2022-08-26T05:44:23.840Z,16.78
2022-08-26T05:45:23.823Z,16.85
2022-08-26T05:46:23.827Z,16.91
2022-08-26T05:47:23.799Z,16.96
2022-08-26T05:48:24.336Z,17.00
2022-08-26T05:49:26.401Z,17.04
2022-08-26T05:50:23.759Z,17.06
2022-08-26T05:51:25.983Z,17.08
2022-08-26T05:52:24.617Z,17.12
2022-08-26T05:53:23.996Z,17.16
2022-08-26T05:54:23.697Z,17.21
2022-08-26T05:55:23.707Z,17.25
2022-08-26T05:56:23.690Z,17.28
2022-08-26T05:57:23.712Z,17.33
2022-08-26T05:58:23.679Z,17.37
2022-08-26T05:59:24.690Z,17.41
2022-08-26T06:00:23.638Z,17.44
2022-08-26T06:01:23.716Z,17.51
2022-08-26T06:02:23.686Z,17.52
2022-08-26T06:03:23.619Z,17.56
2022-08-26T06:04:24.880Z,17.62
2022-08-26T06:05:23.589Z,17.68
2022-08-26T06:06:27.993Z,17.71
2022-08-26T06:07:24.589Z,17.75
2022-08-26T06:08:23.561Z,17.77
2022-08-26T06:09:23.540Z,17.79
2022-08-26T06:10:32.033Z,17.82
2022-08-26T06:11:24.520Z,17.86
2022-08-26T06:12:23.772Z,17.89
2022-08-26T06:13:23.518Z,17.92
2022-08-26T06:14:23.489Z,17.95
2022-08-26T06:15:23.509Z,17.97
2022-08-26T06:16:23.565Z,18.02
2022-08-26T06:17:23.713Z,18.07
2022-08-26T06:18:23.441Z,18.11
2022-08-26T06:19:23.431Z,18.15
2022-08-26T06:20:23.420Z,18.18
2022-08-26T06:21:23.401Z,18.25
2022-08-26T06:22:23.860Z,18.27
2022-08-26T06:23:23.363Z,18.33
2022-08-26T06:24:27.015Z,18.35
2022-08-26T06:25:23.350Z,18.35
2022-08-26T06:26:23.382Z,18.37
2022-08-26T06:27:23.320Z,18.44
2022-08-26T06:28:23.328Z,18.48
2022-08-26T06:29:24.576Z,18.52
2022-08-26T06:30:23.313Z,18.58
2022-08-26T06:31:23.370Z,18.63
2022-08-26T06:32:23.292Z,18.69
2022-08-26T06:33:23.253Z,18.72
2022-08-26T06:34:23.735Z,18.80
2022-08-26T06:35:24.232Z,18.82
2022-08-26T06:36:23.251Z,18.87
2022-08-26T06:37:23.222Z,18.94
2022-08-26T06:38:23.288Z,19.00
2022-08-26T06:39:23.247Z,19.04
2022-08-26T06:40:23.230Z,19.10
2022-08-26T06:41:23.181Z,19.16
2022-08-26T06:42:23.171Z,19.21
2022-08-26T06:43:23.195Z,19.26
2022-08-26T06:44:23.155Z,19.29
2022-08-26T06:45:23.136Z,19.36
2022-08-26T06:46:23.157Z,19.46
2022-08-26T06:47:23.091Z,19.48
2022-08-26T06:48:23.107Z,19.56
2022-08-26T06:49:26.817Z,19.58
2022-08-26T06:50:23.134Z,19.63
2022-08-26T06:51:23.613Z,19.65
2022-08-26T06:52:24.536Z,19.69
2022-08-26T06:53:23.051Z,19.71
2022-08-26T06:54:23.075Z,19.77
2022-08-26T06:55:27.046Z,19.86
2022-08-26T06:56:23.263Z,19.94
2022-08-26T06:57:22.992Z,19.96
2022-08-26T06:58:23.152Z,20.02
2022-08-26T06:59:22.962Z,20.05
2022-08-26T07:00:23.050Z,20.13
2022-08-26T07:01:23.358Z,20.18
2022-08-26T07:02:22.989Z,20.24
2022-08-26T07:03:22.942Z,20.29
2022-08-26T07:04:23.216Z,20.35
2022-08-26T07:05:22.902Z,20.47
2022-08-26T07:06:23.741Z,20.54
2022-08-26T07:07:23.239Z,20.64
2022-08-26T07:08:22.881Z,20.72
2022-08-26T07:09:22.937Z,20.79
2022-08-26T07:10:22.878Z,20.88
2022-08-26T07:11:22.857Z,20.89
2022-08-26T07:12:22.854Z,20.91
2022-08-26T07:13:30.774Z,20.91
2022-08-26T07:14:23.816Z,20.94
2022-08-26T07:15:23.848Z,20.89
2022-08-26T07:16:22.856Z,20.89
2022-08-26T07:17:24.990Z,20.87
2022-08-26T07:18:22.746Z,20.79
2022-08-26T07:19:29.770Z,20.76
2022-08-26T07:20:23.775Z,20.79
2022-08-26T07:21:22.755Z,20.76
2022-08-26T07:22:22.775Z,20.74
2022-08-26T07:23:22.687Z,20.70
2022-08-26T07:24:22.686Z,20.67
2022-08-26T07:25:22.717Z,20.62
2022-08-26T07:26:22.660Z,20.62
2022-08-26T07:27:22.633Z,20.62
2022-08-26T07:28:22.640Z,20.61
2022-08-26T07:29:22.678Z,20.64
2022-08-26T07:30:22.691Z,20.69
2022-08-26T07:31:22.650Z,20.66
2022-08-26T07:32:22.980Z,20.61
2022-08-26T07:33:22.580Z,20.64
2022-08-26T07:34:22.704Z,20.67
2022-08-26T07:35:22.705Z,20.74
2022-08-26T07:36:22.715Z,20.80
2022-08-26T07:37:22.556Z,20.84
2022-08-26T07:38:22.566Z,20.88
2022-08-26T07:39:22.625Z,20.92
2022-08-26T07:40:22.742Z,20.95
2022-08-26T07:41:22.751Z,20.98
2022-08-26T07:42:22.555Z,21.01
2022-08-26T07:43:22.460Z,20.97
2022-08-26T07:44:22.492Z,20.99
2022-08-26T07:45:22.675Z,21.03
2022-08-26T07:46:27.153Z,21.07
2022-08-26T07:47:25.689Z,21.16
2022-08-26T07:48:22.441Z,21.19
2022-08-26T07:49:22.846Z,21.22
2022-08-26T07:50:22.719Z,21.29
2022-08-26T07:51:23.433Z,21.29
2022-08-26T07:52:26.343Z,21.32
2022-08-26T07:53:24.152Z,21.34
2022-08-26T07:54:27.087Z,21.38
2022-08-26T07:55:23.393Z,21.42
2022-08-26T07:56:22.350Z,21.43
2022-08-26T07:57:24.316Z,21.43
2022-08-26T07:58:22.345Z,21.43
2022-08-26T07:59:22.788Z,21.43
2022-08-26T08:00:22.340Z,21.43
2022-08-26T08:01:22.307Z,21.49
2022-08-26T08:02:22.314Z,21.52
2022-08-26T08:03:22.240Z,21.58
2022-08-26T08:04:26.327Z,21.64
2022-08-26T08:05:22.262Z,21.71
2022-08-26T08:06:27.177Z,21.79
2022-08-26T08:07:25.726Z,21.90
2022-08-26T08:08:27.723Z,21.96
2022-08-26T08:09:23.262Z,21.94
2022-08-26T08:10:22.232Z,21.96
2022-08-26T08:11:22.341Z,21.98
2022-08-26T08:12:22.358Z,22.03
2022-08-26T08:13:22.254Z,22.07
2022-08-26T08:14:22.548Z,22.12
2022-08-26T08:15:22.474Z,22.20
2022-08-26T08:16:22.522Z,22.10
2022-08-26T08:17:22.489Z,22.07
2022-08-26T08:18:22.090Z,22.15
2022-08-26T08:19:22.727Z,22.21
2022-08-26T08:20:22.416Z,22.28
2022-08-26T08:21:24.061Z,22.36
2022-08-26T08:22:22.628Z,22.45
2022-08-26T08:23:22.433Z,22.58
2022-08-26T08:24:22.239Z,22.68
2022-08-26T08:25:22.806Z,22.76
2022-08-26T08:26:22.756Z,22.85
2022-08-26T08:27:24.066Z,22.88
2022-08-26T08:28:22.049Z,22.91
2022-08-26T08:29:22.059Z,22.97
2022-08-26T08:30:22.786Z,23.05
2022-08-26T08:31:45.017Z,23.12
2022-08-26T08:32:23.214Z,23.20
2022-08-26T08:33:21.907Z,23.27
2022-08-26T08:34:22.317Z,23.32
2022-08-26T08:35:22.200Z,23.39
2022-08-26T08:36:22.435Z,23.35
2022-08-26T08:37:22.418Z,23.15
2022-08-26T08:38:22.130Z,23.13
2022-08-26T08:39:22.344Z,22.95
2022-08-26T08:40:22.381Z,23.04
2022-08-26T08:41:21.830Z,23.17
2022-08-26T08:42:23.504Z,23.28
2022-08-26T08:43:21.787Z,23.39
2022-08-26T08:44:21.917Z,23.47
2022-08-26T08:45:21.794Z,23.54
2022-08-26T08:46:21.848Z,23.61
2022-08-26T08:47:21.810Z,23.70
2022-08-26T08:48:22.290Z,23.75
2022-08-26T08:49:22.853Z,23.84
2022-08-26T08:50:21.801Z,23.94
2022-08-26T08:51:21.803Z,24.03
2022-08-26T08:52:21.750Z,24.13
2022-08-26T08:53:21.711Z,24.24
2022-08-26T08:54:21.959Z,24.35
2022-08-26T08:55:21.744Z,24.31
2022-08-26T08:56:21.661Z,24.25
2022-08-26T08:57:21.771Z,24.34
2022-08-26T08:58:21.662Z,24.40
2022-08-26T08:59:21.672Z,24.47
2022-08-26T09:00:21.800Z,24.53
2022-08-26T09:01:22.647Z,24.61
2022-08-26T09:02:21.826Z,24.67
2022-08-26T09:03:21.780Z,24.67
2022-08-26T09:04:21.692Z,24.73
2022-08-26T09:05:21.812Z,24.76
2022-08-26T09:06:21.600Z,24.60
2022-08-26T09:07:21.814Z,24.52
2022-08-26T09:08:21.614Z,24.35
2022-08-26T09:09:21.722Z,24.35
2022-08-26T09:10:21.534Z,24.39
2022-08-26T09:11:21.770Z,24.40
2022-08-26T09:12:29.838Z,24.34
2022-08-26T09:13:26.242Z,24.39
2022-08-26T09:14:21.475Z,24.42
2022-08-26T09:15:21.572Z,24.42
2022-08-26T09:16:21.632Z,24.28
2022-08-26T09:17:21.674Z,24.31
2022-08-26T09:18:21.705Z,24.40
2022-08-26T09:19:21.685Z,24.52
2022-08-26T09:20:21.809Z,24.57
2022-08-26T09:21:21.813Z,24.64
2022-08-26T09:23:21.406Z,24.91
2022-08-26T09:24:22.379Z,25.06
2022-08-26T09:25:22.754Z,25.15
2022-08-26T09:26:23.537Z,25.25
2022-08-26T09:27:22.376Z,25.38
2022-08-26T09:28:21.346Z,25.25
2022-08-26T09:30:21.512Z,25.47
2022-08-26T09:31:21.695Z,25.57
2022-08-26T09:32:21.715Z,25.73
2022-08-26T09:33:21.691Z,25.82
2022-08-26T09:34:21.807Z,25.88
2022-08-26T09:35:21.283Z,25.92
2022-08-26T09:36:21.814Z,25.92
2022-08-26T09:37:21.396Z,25.57
2022-08-26T09:38:21.828Z,25.32
2022-08-26T09:39:21.186Z,25.38
2022-08-26T09:40:21.235Z,25.38
2022-08-26T09:41:21.225Z,25.17
2022-08-26T09:42:21.281Z,24.99
2022-08-26T09:43:22.499Z,24.90
2022-08-26T09:44:21.823Z,24.88
2022-08-26T09:45:22.066Z,25.02
2022-08-26T09:46:21.269Z,25.23
2022-08-26T09:47:21.266Z,25.40
2022-08-26T09:48:21.275Z,25.58
2022-08-26T09:49:21.280Z,25.76
2022-08-26T09:50:21.287Z,25.91
2022-08-26T09:51:21.287Z,26.06
2022-08-26T09:52:21.237Z,26.17
2022-08-26T09:53:28.533Z,26.39
2022-08-26T09:54:22.347Z,26.58
2022-08-26T09:55:22.393Z,26.76
2022-08-26T09:56:21.338Z,26.89
2022-08-26T09:57:20.968Z,27.02
2022-08-26T09:58:20.958Z,27.12
2022-08-26T09:59:21.074Z,27.19
2022-08-26T10:00:21.149Z,27.13
2022-08-26T10:01:21.034Z,26.80
2022-08-26T10:02:21.069Z,26.73
2022-08-26T10:03:20.890Z,26.75
2022-08-26T10:04:20.941Z,26.77
2022-08-26T10:05:20.880Z,26.87
2022-08-26T10:06:21.143Z,26.72
2022-08-26T10:07:20.951Z,26.70
2022-08-26T10:08:20.899Z,26.81
2022-08-26T10:09:20.908Z,26.94
2022-08-26T10:10:20.920Z,26.85
2022-08-26T10:11:20.809Z,26.92
2022-08-26T10:12:20.837Z,26.87
2022-08-26T10:13:20.841Z,26.48
2022-08-26T10:14:20.837Z,26.25
2022-08-26T10:15:20.855Z,26.06
2022-08-26T10:16:20.871Z,26.23
2022-08-26T10:17:20.890Z,26.36
2022-08-26T10:18:20.868Z,26.50
2022-08-26T10:19:20.905Z,26.72
2022-08-26T10:20:22.919Z,26.97
2022-08-26T10:21:20.892Z,27.22
2022-08-26T10:22:20.722Z,27.36
2022-08-26T10:23:20.713Z,26.76
2022-08-26T10:24:20.713Z,26.73
2022-08-26T10:25:20.700Z,26.82
2022-08-26T10:26:20.762Z,27.03
2022-08-26T10:27:20.629Z,27.31
2022-08-26T10:28:20.650Z,27.63
2022-08-26T10:29:20.736Z,27.92
2022-08-26T10:30:20.817Z,28.15
2022-08-26T10:31:20.690Z,28.27
2022-08-26T10:32:21.815Z,28.40
2022-08-26T10:33:20.763Z,28.48
2022-08-26T10:34:21.263Z,28.49
2022-08-26T10:35:21.302Z,28.25
2022-08-26T10:36:20.841Z,28.30
2022-08-26T10:37:20.532Z,28.41
2022-08-26T10:38:20.503Z,28.33
2022-08-26T10:39:20.803Z,28.40
2022-08-26T10:40:20.848Z,28.44
2022-08-26T10:41:20.824Z,28.12
2022-08-26T10:42:20.946Z,28.11
2022-08-26T10:43:21.097Z,28.14
2022-08-26T10:44:20.433Z,28.19
2022-08-26T10:45:20.476Z,28.33
2022-08-26T10:46:20.539Z,28.39
2022-08-26T10:47:20.574Z,28.49
2022-08-26T10:48:20.394Z,28.58
2022-08-26T10:49:20.458Z,28.80
2022-08-26T10:50:20.366Z,28.92
2022-08-26T10:51:20.385Z,29.00
2022-08-26T10:52:20.381Z,29.12
2022-08-26T10:53:25.295Z,29.21
2022-08-26T10:54:21.437Z,29.26
2022-08-26T10:55:20.327Z,29.31
2022-08-26T10:56:20.297Z,29.31
2022-08-26T10:57:20.301Z,29.24
2022-08-26T10:58:26.171Z,28.93
2022-08-26T10:59:21.279Z,28.92
2022-08-26T11:00:20.273Z,29.08
2022-08-26T11:01:22.781Z,29.18
2022-08-26T11:02:24.711Z,29.28
2022-08-26T11:03:22.110Z,29.36
2022-08-26T11:04:20.332Z,29.28
2022-08-26T11:05:20.215Z,28.92
2022-08-26T11:06:20.278Z,28.96
2022-08-26T11:07:20.217Z,28.86
2022-08-26T11:08:20.156Z,28.98
2022-08-26T11:09:20.156Z,29.00
2022-08-26T11:10:21.200Z,29.08
2022-08-26T11:11:20.138Z,29.11
2022-08-26T11:12:20.125Z,29.23
2022-08-26T11:13:20.148Z,29.46
2022-08-26T11:14:28.393Z,29.55
2022-08-26T11:15:24.593Z,29.49
2022-08-26T11:16:20.138Z,29.64
2022-08-26T11:17:20.075Z,29.71
2022-08-26T11:18:20.059Z,29.76
2022-08-26T11:19:21.076Z,29.74
2022-08-26T11:20:24.333Z,29.45
2022-08-26T11:21:21.026Z,29.51
2022-08-26T11:22:19.999Z,29.36
2022-08-26T11:23:20.009Z,29.05
2022-08-26T11:24:20.117Z,29.05
2022-08-26T11:25:20.002Z,28.66
2022-08-26T11:26:35.481Z,28.59
2022-08-26T11:27:20.962Z,28.56
2022-08-26T11:28:19.970Z,28.52
2022-08-26T11:29:20.743Z,28.70
2022-08-26T11:30:19.952Z,28.95
2022-08-26T11:31:19.972Z,29.04
2022-08-26T11:32:19.889Z,29.14
2022-08-26T11:33:19.910Z,29.27
2022-08-26T11:34:19.860Z,29.53
2022-08-26T11:35:19.877Z,29.78
2022-08-26T11:36:19.884Z,30.13
2022-08-26T11:38:19.821Z,30.13
2022-08-26T11:39:19.830Z,29.82
2022-08-26T11:40:19.860Z,29.39
2022-08-26T11:41:19.832Z,29.27
2022-08-26T11:42:20.131Z,29.06
2022-08-26T11:43:20.177Z,28.96
2022-08-26T11:44:19.781Z,28.76
2022-08-26T11:45:19.885Z,28.76
2022-08-26T11:46:19.834Z,29.14
2022-08-26T11:47:20.582Z,29.41
2022-08-26T11:48:19.740Z,29.48
2022-08-26T11:49:19.743Z,29.05
2022-08-26T11:50:19.757Z,29.16
2022-08-26T11:51:19.702Z,29.39
2022-08-26T11:52:20.904Z,29.63
2022-08-26T11:53:19.722Z,29.78
2022-08-26T11:54:31.871Z,29.87
2022-08-26T11:55:20.689Z,29.85
2022-08-26T11:56:19.625Z,29.98
2022-08-26T11:57:19.623Z,30.11
2022-08-26T11:58:19.613Z,30.26
2022-08-26T11:59:19.644Z,30.35
2022-08-26T12:00:22.270Z,30.31
2022-08-26T12:01:19.578Z,30.34
2022-08-26T12:02:19.654Z,30.37
2022-08-26T12:03:19.728Z,30.10
2022-08-26T12:04:19.882Z,30.15
2022-08-26T12:05:19.598Z,29.94
2022-08-26T12:06:19.643Z,29.85
2022-08-26T12:07:23.890Z,29.41
2022-08-26T12:08:19.510Z,29.48
2022-08-26T12:09:19.621Z,29.61
2022-08-26T12:10:19.497Z,29.73
2022-08-26T12:11:19.491Z,29.76
2022-08-26T12:12:19.455Z,29.87
2022-08-26T12:13:19.448Z,29.95
2022-08-26T12:14:19.426Z,30.02
2022-08-26T12:15:19.533Z,30.02
2022-08-26T12:16:19.434Z,30.08
2022-08-26T12:17:19.420Z,30.19
2022-08-26T12:18:20.655Z,30.24
2022-08-26T12:19:21.202Z,30.34
2022-08-26T12:20:19.389Z,30.55
2022-08-26T12:21:19.440Z,30.32
2022-08-26T12:22:20.944Z,29.87
2022-08-26T12:23:19.357Z,29.94
2022-08-26T12:24:19.608Z,29.74
2022-08-26T12:25:19.327Z,29.80
2022-08-26T12:26:19.339Z,30.19
2022-08-26T12:27:19.317Z,30.43
2022-08-26T12:28:19.328Z,30.53
2022-08-26T12:29:26.828Z,30.58
2022-08-26T12:30:20.305Z,30.55
2022-08-26T12:31:19.394Z,30.58
2022-08-26T12:32:19.258Z,30.69
2022-08-26T12:33:22.665Z,30.83
2022-08-26T12:34:19.240Z,31.06
2022-08-26T12:35:19.233Z,31.02
2022-08-26T12:36:19.242Z,30.75
2022-08-26T12:37:19.289Z,30.65
2022-08-26T12:38:19.189Z,30.67
2022-08-26T12:39:19.190Z,30.55
2022-08-26T12:40:19.208Z,30.69
2022-08-26T12:41:19.169Z,30.69
2022-08-26T12:42:19.148Z,30.23
2022-08-26T12:43:19.128Z,30.32
2022-08-26T12:44:19.117Z,30.43
2022-08-26T12:45:19.117Z,30.55
2022-08-26T12:46:19.120Z,30.61
2022-08-26T12:47:20.454Z,30.84
2022-08-26T12:48:20.089Z,30.95
2022-08-26T12:49:19.080Z,30.94
2022-08-26T12:50:19.123Z,30.98
2022-08-26T12:51:19.051Z,30.72
2022-08-26T12:52:19.069Z,30.98
2022-08-26T12:53:19.031Z,31.09
2022-08-26T12:54:19.018Z,31.13
2022-08-26T12:55:18.994Z,31.21